This is the latest recevied weather packets stored in our database for station/object GW1496. If no packets are shown the sender has not sent any weather packets the latest 10 day(s).
| Time | Temp. | Humidity | Pressure | Rain* | Wind** | Luminosity | Snow |
|---|---|---|---|---|---|---|---|
| 1777967471 | 8.33° C | 92% | 1004 hPa | 0 mm | - | - | - |
| 1777966779 | 8.89° C | 92% | 1004 hPa | 0 mm | - | - | - |
| 1777959570 | 10° C | 89% | 1004 hPa | 0 mm | - | - | - |
| 1777959189 | 10° C | 89% | 1004 hPa | 0 mm | - | - | - |
| 1777958137 | 10° C | 88% | 1004 hPa | 0 mm | - | - | - |
| 1777949863 | 12.22° C | 80% | 1003 hPa | 0 mm | - | - | - |
| 1777946966 | 13.33° C | 78% | 1003 hPa | 0 mm | - | - | - |
| 1777946597 | 13.89° C | 74% | 1003 hPa | 0 mm | - | - | - |
| 1777945158 | 14.44° C | 71% | 1003 hPa | 0 mm | - | - | - |
| 1777943736 | 15.56° C | 67% | 1003 hPa | 0 mm | - | - | - |
| 1777943011 | 15.56° C | 65% | 1003 hPa | 0 mm | - | - | - |
| 1777940113 | 19.44° C | 50% | 1002 hPa | 0 mm | - | - | - |
| 1777939035 | 21.67° C | 44% | 1002 hPa | 0 mm | - | - | - |
| 1777937621 | 22.78° C | 36% | 1002 hPa | 0 mm | - | - | - |
| 1777935107 | 24.44° C | 33% | 1002 hPa | 0 mm | - | - | - |
| 1777934376 | 25.56° C | 32% | 1002 hPa | 0 mm | - | - | - |
| 1777933996 | 26.11° C | 31% | 1002 hPa | 0 mm | - | - | - |
| 1777932196 | 26.11° C | 30% | 1002 hPa | 0 mm | - | - | - |
| 1777929328 | 25.56° C | 32% | 1002 hPa | 0 mm | - | - | - |
| 1777928990 | 25.56° C | 32% | 1002 hPa | 0 mm | - | - | - |
| 1777927172 | 25° C | 32% | 1002 hPa | 0 mm | - | - | - |
| 1777925741 | 25° C | 33% | 1003 hPa | 0 mm | - | - | - |
| 1777923576 | 23.89° C | 34% | 1003 hPa | 0 mm | - | - | - |
| 1777922842 | 23.89° C | 37% | 1003 hPa | 0 mm | - | - | - |
| 1777921789 | 23.33° C | 36% | 1003 hPa | 0 mm | - | - | - |
* Rain since midnight (hover to see other rain measurements)
** Current wind speed in m/s (hover to see current wind gust speed)